Time;durP1;ratioP1;P1;durP2;ratioP2;P2;SDS_P1;SDS_P2;PMS_P1;PMS_P2;Temp;Humidity;BMP_temperature;BMP_pressure;BME280_temperature;BME280_humidity;BME280_pressure;Samples;Min_cycle;Max_cycle;Signal;HPM_P1;HPM_P2
2023/04/19 00:02:27;;;;;;;6.07;5.53;;;;;;;;;;5045714;28;20207;-74
2023/04/19 00:04:55;;;;;;;6.83;5.47;;;;;;;;;;5049558;28;20250;-73
2023/04/19 00:07:22;;;;;;;5.97;5.37;;;;;;;;;;5041758;28;20266;-75
2023/04/19 00:09:49;;;;;;;6.80;6.10;;;;;;;;;;5044155;28;20219;-72
2023/04/19 00:12:16;;;;;;;6.50;5.73;;;;;;;;;;5041664;28;20204;-73
2023/04/19 00:14:45;;;;;;;5.90;5.40;;;;;;;;;;5043432;28;20204;-72
2023/04/19 00:17:12;;;;;;;6.33;5.83;;;;;;;;;;5046032;28;20208;-72
2023/04/19 00:19:40;;;;;;;6.20;5.60;;;;;;;;;;5044602;28;20203;-73
2023/04/19 00:22:07;;;;;;;6.53;5.73;;;;;;;;;;5044654;28;20223;-72
2023/04/19 00:24:34;;;;;;;6.73;6.03;;;;;;;;;;5041184;28;20210;-73
2023/04/19 00:27:01;;;;;;;6.67;6.07;;;;;;;;;;5043414;28;20204;-73
2023/04/19 00:29:28;;;;;;;6.97;6.37;;;;;;;;;;5044209;28;20307;-73
2023/04/19 00:31:57;;;;;;;6.20;5.50;;;;;;;;;;5045733;28;20203;-72
2023/04/19 00:34:24;;;;;;;6.30;5.70;;;;;;;;;;5045924;28;20207;-72
2023/04/19 00:36:51;;;;;;;6.20;5.70;;;;;;;;;;5048274;28;20218;-72
2023/04/19 00:39:18;;;;;;;6.30;5.70;;;;;;;;;;5044984;28;20206;-72
2023/04/19 00:41:45;;;;;;;5.90;5.37;;;;;;;;;;5045067;28;20223;-72
2023/04/19 00:44:12;;;;;;;6.27;5.67;;;;;;;;;;5040595;28;20203;-73
2023/04/19 00:46:39;;;;;;;6.30;5.80;;;;;;;;;;5041832;28;20210;-72
2023/04/19 00:49:08;;;;;;;6.70;6.10;;;;;;;;;;5040335;28;20231;-72
2023/04/19 00:51:35;;;;;;;6.63;5.93;;;;;;;;;;5048818;28;20202;-73
2023/04/19 00:54:03;;;;;;;6.37;5.77;;;;;;;;;;5046343;28;20215;-72
2023/04/19 00:56:30;;;;;;;6.20;5.67;;;;;;;;;;5044328;28;20199;-72
2023/04/19 00:58:58;;;;;;;6.87;6.07;;;;;;;;;;5041177;28;20208;-72
2023/04/19 01:01:25;;;;;;;6.27;5.67;;;;;;;;;;5043231;28;20226;-63
2023/04/19 01:03:52;;;;;;;6.73;6.13;;;;;;;;;;5044203;28;20208;-65
2023/04/19 01:06:21;;;;;;;5.93;5.43;;;;;;;;;;5040536;28;20207;-64
2023/04/19 01:08:48;;;;;;;6.03;5.53;;;;;;;;;;5041618;28;20222;-64
2023/04/19 01:11:15;;;;;;;5.97;5.30;;;;;;;;;;5046495;28;20208;-64
2023/04/19 01:13:42;;;;;;;6.13;5.53;;;;;;;;;;5041537;28;20211;-66
2023/04/19 01:16:10;;;;;;;6.40;5.90;;;;;;;;;;5040985;28;20226;-66
2023/04/19 01:18:39;;;;;;;6.03;5.53;;;;;;;;;;5043554;28;20200;-66
2023/04/19 01:21:06;;;;;;;5.90;5.40;;;;;;;;;;5040429;28;20207;-66
2023/04/19 01:23:35;;;;;;;6.83;5.60;;;;;;;;;;5044388;28;20206;-64
2023/04/19 01:26:02;;;;;;;6.47;5.43;;;;;;;;;;5044846;28;20266;-65
2023/04/19 01:28:29;;;;;;;5.63;5.10;;;;;;;;;;5043219;28;20199;-65
2023/04/19 01:30:56;;;;;;;6.40;5.80;;;;;;;;;;5047309;28;20200;-66
2023/04/19 01:33:24;;;;;;;5.87;5.37;;;;;;;;;;5039243;28;20208;-66
2023/04/19 01:35:51;;;;;;;5.80;5.30;;;;;;;;;;5044278;28;20207;-66
2023/04/19 01:38:18;;;;;;;5.80;5.20;;;;;;;;;;5047243;28;20203;-66
2023/04/19 01:40:46;;;;;;;5.70;5.20;;;;;;;;;;5039227;28;20215;-66
2023/04/19 01:43:14;;;;;;;5.87;5.33;;;;;;;;;;5046510;28;20203;-66
2023/04/19 01:45:41;;;;;;;5.93;5.43;;;;;;;;;;5041327;28;20236;-63
2023/04/19 01:48:08;;;;;;;5.47;4.97;;;;;;;;;;5044723;28;20229;-64
2023/04/19 01:50:35;;;;;;;5.43;4.93;;;;;;;;;;5045427;28;20239;-65
2023/04/19 01:53:03;;;;;;;5.60;5.10;;;;;;;;;;5049720;28;20281;-64
2023/04/19 01:55:30;;;;;;;5.80;5.30;;;;;;;;;;5043632;28;20214;-64
2023/04/19 01:57:58;;;;;;;5.80;5.20;;;;;;;;;;5040337;28;20210;-64
2023/04/19 02:00:25;;;;;;;6.97;5.10;;;;;;;;;;5042660;28;20195;-65
2023/04/19 02:02:52;;;;;;;5.33;4.83;;;;;;;;;;5043865;28;20211;-64
2023/04/19 02:05:19;;;;;;;6.10;5.50;;;;;;;;;;5045421;28;20208;-65
2023/04/19 02:07:47;;;;;;;6.03;5.47;;;;;;;;;;5038610;28;20287;-66
2023/04/19 02:10:14;;;;;;;5.70;5.20;;;;;;;;;;5044011;28;20245;-65
2023/04/19 02:12:41;;;;;;;5.47;4.97;;;;;;;;;;5047497;28;20290;-65
2023/04/19 02:15:10;;;;;;;5.77;5.17;;;;;;;;;;5043983;28;20210;-66
2023/04/19 02:17:38;;;;;;;6.00;5.30;;;;;;;;;;5042253;28;20199;-64
2023/04/19 02:20:07;;;;;;;5.60;5.10;;;;;;;;;;5045256;28;20210;-65
2023/04/19 02:22:34;;;;;;;6.20;4.93;;;;;;;;;;5041786;28;20307;-64
2023/04/19 02:25:01;;;;;;;5.67;5.17;;;;;;;;;;5043877;28;20200;-66
2023/04/19 02:27:28;;;;;;;5.03;4.63;;;;;;;;;;5044428;28;20206;-66
2023/04/19 02:29:56;;;;;;;5.17;4.67;;;;;;;;;;5040518;28;20217;-67
2023/04/19 02:32:24;;;;;;;5.47;4.97;;;;;;;;;;5041099;28;20208;-63
2023/04/19 02:34:51;;;;;;;4.97;4.57;;;;;;;;;;5045234;28;20207;-64
2023/04/19 02:37:18;;;;;;;5.87;4.83;;;;;;;;;;5043636;28;20211;-66
2023/04/19 02:39:45;;;;;;;5.83;5.23;;;;;;;;;;5046831;28;20206;-64
2023/04/19 02:42:13;;;;;;;5.10;4.67;;;;;;;;;;5041799;28;20214;-64
2023/04/19 02:44:40;;;;;;;6.13;4.70;;;;;;;;;;5046823;28;20238;-65
2023/04/19 02:47:07;;;;;;;5.87;5.37;;;;;;;;;;5040942;28;20206;-66
2023/04/19 02:49:40;;;;;;;6.00;5.17;;;;;;;;;;5042444;28;20230;-66
2023/04/19 02:52:07;;;;;;;4.90;4.50;;;;;;;;;;5044719;28;20203;-66
2023/04/19 02:54:34;;;;;;;4.67;4.30;;;;;;;;;;5036598;28;20204;-66
2023/04/19 02:57:01;;;;;;;5.33;4.87;;;;;;;;;;5039143;28;20199;-66
2023/04/19 02:59:28;;;;;;;5.07;4.67;;;;;;;;;;5038839;28;20268;-64
2023/04/19 03:01:56;;;;;;;5.10;4.60;;;;;;;;;;5039484;28;20200;-65
2023/04/19 03:04:23;;;;;;;5.50;5.00;;;;;;;;;;5043206;28;20207;-66
2023/04/19 03:06:51;;;;;;;4.83;4.33;;;;;;;;;;5046850;28;20466;-66
2023/04/19 03:09:18;;;;;;;5.17;4.60;;;;;;;;;;5042606;28;20231;-66
2023/04/19 03:11:45;;;;;;;4.87;4.43;;;;;;;;;;5040434;28;20203;-65
2023/04/19 03:14:12;;;;;;;5.17;4.67;;;;;;;;;;5047170;28;20207;-65
2023/04/19 03:16:40;;;;;;;5.17;4.57;;;;;;;;;;5041285;28;20208;-66
2023/04/19 03:19:07;;;;;;;5.07;4.67;;;;;;;;;;5043205;28;20211;-65
2023/04/19 03:21:34;;;;;;;5.40;4.73;;;;;;;;;;5047889;28;20210;-65
2023/04/19 03:24:03;;;;;;;5.13;4.63;;;;;;;;;;5049047;28;20211;-65
2023/04/19 03:26:30;;;;;;;5.43;4.87;;;;;;;;;;5050553;28;20211;-64
2023/04/19 03:28:57;;;;;;;5.00;4.60;;;;;;;;;;5044122;28;20207;-66
2023/04/19 03:31:24;;;;;;;4.93;4.53;;;;;;;;;;5050329;28;20203;-65
2023/04/19 03:33:51;;;;;;;5.33;4.90;;;;;;;;;;5044125;28;20203;-66
2023/04/19 03:36:18;;;;;;;4.93;4.53;;;;;;;;;;5043231;28;20219;-66
2023/04/19 03:38:45;;;;;;;5.33;4.83;;;;;;;;;;5040839;28;20211;-66
2023/04/19 03:41:20;;;;;;;4.90;4.50;;;;;;;;;;5044616;28;20203;-64
2023/04/19 03:43:47;;;;;;;4.43;4.10;;;;;;;;;;5045502;28;20213;-66
2023/04/19 03:46:15;;;;;;;5.17;4.77;;;;;;;;;;5044459;28;20231;-66
2023/04/19 03:48:42;;;;;;;4.53;4.13;;;;;;;;;;5042213;28;20204;-65
2023/04/19 03:51:09;;;;;;;4.50;4.10;;;;;;;;;;5043859;28;20239;-65
2023/04/19 03:53:37;;;;;;;5.17;4.67;;;;;;;;;;5046004;28;20287;-65
2023/04/19 03:56:04;;;;;;;5.00;4.60;;;;;;;;;;5045376;28;20195;-65
2023/04/19 03:58:32;;;;;;;4.83;4.30;;;;;;;;;;5046271;28;20210;-65
2023/04/19 04:01:00;;;;;;;4.30;4.00;;;;;;;;;;5044056;28;20196;-65
2023/04/19 04:03:27;;;;;;;4.33;4.03;;;;;;;;;;5051914;28;20210;-65
2023/04/19 04:05:54;;;;;;;4.50;4.10;;;;;;;;;;5048232;28;20202;-65
2023/04/19 04:08:21;;;;;;;5.00;4.50;;;;;;;;;;5044041;28;20233;-65
2023/04/19 04:10:48;;;;;;;4.30;4.00;;;;;;;;;;5039447;28;20224;-67
2023/04/19 04:13:15;;;;;;;4.20;3.80;;;;;;;;;;5047531;28;20203;-66
2023/04/19 04:15:44;;;;;;;4.30;4.00;;;;;;;;;;5048927;28;20203;-66
2023/04/19 04:18:11;;;;;;;4.03;3.73;;;;;;;;;;5040769;28;20205;-66
2023/04/19 04:20:38;;;;;;;5.10;4.63;;;;;;;;;;5040639;28;20213;-66
2023/04/19 04:23:06;;;;;;;4.00;3.60;;;;;;;;;;5045870;28;20204;-66
2023/04/19 04:25:36;;;;;;;4.00;3.70;;;;;;;;;;5046008;28;20242;-66
2023/04/19 04:28:03;;;;;;;4.50;4.10;;;;;;;;;;5044570;28;20204;-66
2023/04/19 04:30:30;;;;;;;4.37;3.97;;;;;;;;;;5049266;28;20225;-66
2023/04/19 04:32:59;;;;;;;4.30;3.90;;;;;;;;;;5044704;28;20204;-66
2023/04/19 04:35:28;;;;;;;4.83;4.03;;;;;;;;;;5041435;28;20202;-66
2023/04/19 04:37:55;;;;;;;3.90;3.60;;;;;;;;;;5042051;28;20210;-66
2023/04/19 04:40:23;;;;;;;4.13;3.70;;;;;;;;;;5040304;28;20208;-66
2023/04/19 04:42:51;;;;;;;3.60;3.30;;;;;;;;;;5047602;28;20200;-66
2023/04/19 04:45:18;;;;;;;4.33;3.93;;;;;;;;;;5043327;28;20319;-66
2023/04/19 04:47:46;;;;;;;4.33;3.93;;;;;;;;;;5043575;28;20211;-67
2023/04/19 04:50:14;;;;;;;3.90;3.60;;;;;;;;;;5041901;28;20265;-66
2023/04/19 04:52:41;;;;;;;4.10;3.80;;;;;;;;;;5040978;28;20282;-66
2023/04/19 04:55:09;;;;;;;4.00;3.70;;;;;;;;;;5040951;28;20203;-66
2023/04/19 04:57:36;;;;;;;5.67;4.20;;;;;;;;;;5042289;28;20207;-66
2023/04/19 05:00:05;;;;;;;4.97;4.57;;;;;;;;;;5043462;28;20199;-66
2023/04/19 05:02:32;;;;;;;4.80;4.40;;;;;;;;;;5042464;28;20223;-66
2023/04/19 05:04:59;;;;;;;4.70;4.30;;;;;;;;;;5041790;28;20200;-66
2023/04/19 05:07:28;;;;;;;4.23;3.83;;;;;;;;;;5042648;28;20210;-66
2023/04/19 05:09:55;;;;;;;4.23;3.93;;;;;;;;;;5041419;28;20219;-66
2023/04/19 05:12:22;;;;;;;4.17;3.77;;;;;;;;;;5041794;28;20226;-67
2023/04/19 05:14:49;;;;;;;5.47;4.97;;;;;;;;;;5041702;28;20215;-66
2023/04/19 05:17:16;;;;;;;4.10;3.80;;;;;;;;;;5045228;28;20211;-67
2023/04/19 05:19:43;;;;;;;6.63;5.93;;;;;;;;;;5044365;28;20203;-66
2023/04/19 05:22:10;;;;;;;9.90;8.60;;;;;;;;;;5038649;28;20211;-63
2023/04/19 05:24:39;;;;;;;9.70;8.60;;;;;;;;;;5042980;28;20207;-64
2023/04/19 05:27:06;;;;;;;6.60;5.90;;;;;;;;;;5041940;28;20207;-63
2023/04/19 05:29:33;;;;;;;5.90;5.27;;;;;;;;;;5041077;28;20199;-64
2023/04/19 05:32:00;;;;;;;6.10;5.37;;;;;;;;;;5040193;28;20277;-66
2023/04/19 05:34:27;;;;;;;7.00;5.03;;;;;;;;;;5036897;28;20293;-66
2023/04/19 05:36:55;;;;;;;6.33;5.67;;;;;;;;;;5037020;28;20250;-66
2023/04/19 05:39:22;;;;;;;5.83;5.30;;;;;;;;;;5041516;28;20215;-66
2023/04/19 05:41:50;;;;;;;6.70;6.10;;;;;;;;;;5046527;28;20203;-66
2023/04/19 05:44:17;;;;;;;4.73;4.33;;;;;;;;;;5031178;28;20327;-66
2023/04/19 05:46:44;;;;;;;5.50;5.00;;;;;;;;;;5042312;28;20212;-66
2023/04/19 05:49:12;;;;;;;7.20;6.50;;;;;;;;;;5047494;28;20208;-66
2023/04/19 05:51:39;;;;;;;5.87;5.33;;;;;;;;;;5038682;28;20231;-66
2023/04/19 05:54:06;;;;;;;5.60;5.10;;;;;;;;;;5041440;28;20200;-66
2023/04/19 05:56:33;;;;;;;7.40;6.70;;;;;;;;;;5040851;28;20214;-66
2023/04/19 05:59:02;;;;;;;10.53;8.90;;;;;;;;;;5041622;28;20204;-65
2023/04/19 06:01:29;;;;;;;8.27;7.47;;;;;;;;;;5038737;28;20199;-64
2023/04/19 06:03:56;;;;;;;8.60;6.73;;;;;;;;;;5037879;28;20203;-65
2023/04/19 06:06:23;;;;;;;5.60;5.10;;;;;;;;;;5039220;28;20212;-65
2023/04/19 06:08:50;;;;;;;6.53;5.93;;;;;;;;;;5038963;28;20195;-65
2023/04/19 06:11:18;;;;;;;6.03;5.43;;;;;;;;;;5041392;28;20231;-65
2023/04/19 06:13:45;;;;;;;6.43;5.83;;;;;;;;;;5040898;28;20295;-66
2023/04/19 06:16:13;;;;;;;6.53;5.93;;;;;;;;;;5041353;28;20302;-66
2023/04/19 06:18:42;;;;;;;6.33;5.73;;;;;;;;;;5043112;28;20208;-66
2023/04/19 06:21:09;;;;;;;7.07;6.47;;;;;;;;;;5046158;28;20249;-66
2023/04/19 06:23:36;;;;;;;6.20;5.60;;;;;;;;;;5038713;28;20238;-66
2023/04/19 06:26:03;;;;;;;8.33;6.67;;;;;;;;;;5040011;28;20207;-66
2023/04/19 06:28:31;;;;;;;10.47;8.70;;;;;;;;;;5041817;28;20200;-65
2023/04/19 06:30:58;;;;;;;7.73;6.93;;;;;;;;;;5041909;28;20238;-66
2023/04/19 06:33:26;;;;;;;8.50;7.50;;;;;;;;;;5042343;28;20218;-65
2023/04/19 06:35:53;;;;;;;7.70;6.30;;;;;;;;;;5045146;28;20214;-65
2023/04/19 06:38:20;;;;;;;8.20;7.40;;;;;;;;;;5041782;28;20200;-64
2023/04/19 06:40:47;;;;;;;7.70;6.77;;;;;;;;;;5041663;28;20259;-65
2023/04/19 06:43:15;;;;;;;7.53;6.83;;;;;;;;;;5039427;28;20204;-65
2023/04/19 06:45:42;;;;;;;7.87;7.17;;;;;;;;;;5045835;28;20227;-65
2023/04/19 06:48:09;;;;;;;6.70;6.10;;;;;;;;;;5042461;28;20208;-65
2023/04/19 06:50:38;;;;;;;8.57;7.67;;;;;;;;;;5044169;28;20220;-65
2023/04/19 06:53:05;;;;;;;8.10;7.30;;;;;;;;;;5043473;28;20204;-66
2023/04/19 06:55:32;;;;;;;7.20;6.60;;;;;;;;;;5051023;28;20222;-66
2023/04/19 06:57:59;;;;;;;9.37;7.20;;;;;;;;;;5045969;28;20299;-65
2023/04/19 07:00:27;;;;;;;7.40;6.70;;;;;;;;;;5044579;28;20203;-65
2023/04/19 07:02:54;;;;;;;8.03;7.10;;;;;;;;;;5043942;28;20196;-65
2023/04/19 07:05:21;;;;;;;7.73;7.03;;;;;;;;;;5045345;28;20206;-65
2023/04/19 07:07:50;;;;;;;7.77;7.07;;;;;;;;;;5041158;28;20200;-63
2023/04/19 07:10:18;;;;;;;9.63;7.40;;;;;;;;;;5042284;28;20208;-63
2023/04/19 07:12:50;;;;;;;7.67;6.97;;;;;;;;;;5040470;28;20210;-63
2023/04/19 07:15:17;;;;;;;8.17;7.37;;;;;;;;;;5047019;28;20254;-64
2023/04/19 07:17:45;;;;;;;8.33;7.50;;;;;;;;;;5039661;28;20231;-63
2023/04/19 07:20:12;;;;;;;7.30;6.60;;;;;;;;;;5039620;28;20235;-63
2023/04/19 07:22:40;;;;;;;7.93;7.23;;;;;;;;;;5042849;28;20212;-63
2023/04/19 07:25:09;;;;;;;8.20;7.50;;;;;;;;;;5043923;28;20267;-63
2023/04/19 07:27:36;;;;;;;9.20;7.20;;;;;;;;;;5043514;28;20207;-63
2023/04/19 07:30:03;;;;;;;8.30;7.50;;;;;;;;;;5046321;28;20223;-63
2023/04/19 07:32:31;;;;;;;9.27;7.40;;;;;;;;;;5041635;28;20219;-64
2023/04/19 07:34:58;;;;;;;8.17;7.40;;;;;;;;;;5043413;28;20211;-65
2023/04/19 07:37:25;;;;;;;8.57;7.67;;;;;;;;;;5043227;28;20215;-66
2023/04/19 07:39:52;;;;;;;8.67;7.83;;;;;;;;;;5046307;28;20199;-66
2023/04/19 07:42:21;;;;;;;8.43;7.60;;;;;;;;;;5043237;28;20200;-63
2023/04/19 07:44:48;;;;;;;8.60;7.70;;;;;;;;;;5041490;28;20246;-65
2023/04/19 07:47:15;;;;;;;8.40;7.60;;;;;;;;;;5036842;28;20204;-66
2023/04/19 07:49:43;;;;;;;8.00;7.30;;;;;;;;;;5044224;28;20217;-63
2023/04/19 07:52:10;;;;;;;7.60;6.90;;;;;;;;;;5041692;28;20237;-64
2023/04/19 07:54:38;;;;;;;9.43;7.33;;;;;;;;;;5040514;28;20270;-63
2023/04/19 07:57:05;;;;;;;7.60;6.90;;;;;;;;;;5041606;28;20206;-63
2023/04/19 07:59:33;;;;;;;7.70;6.90;;;;;;;;;;5040720;28;20205;-63
2023/04/19 08:02:00;;;;;;;7.60;6.90;;;;;;;;;;5042646;28;20207;-63
2023/04/19 08:04:27;;;;;;;8.30;7.50;;;;;;;;;;5045257;28;20210;-63
2023/04/19 08:06:55;;;;;;;7.63;6.73;;;;;;;;;;5047224;28;20199;-63
2023/04/19 08:09:22;;;;;;;7.70;6.83;;;;;;;;;;5040818;28;20203;-63
2023/04/19 08:11:49;;;;;;;7.67;6.97;;;;;;;;;;5045022;28;20219;-64
2023/04/19 08:14:16;;;;;;;7.53;6.83;;;;;;;;;;5041296;28;20210;-64
2023/04/19 08:16:45;;;;;;;7.63;6.93;;;;;;;;;;5044084;28;20218;-63
2023/04/19 08:19:12;;;;;;;7.93;7.20;;;;;;;;;;5040919;28;20208;-64
2023/04/19 08:21:39;;;;;;;7.53;6.83;;;;;;;;;;5042173;28;20224;-64
2023/04/19 08:24:07;;;;;;;7.68;6.97;;;;;;;;;;5041429;28;20195;-64
2023/04/19 08:26:34;;;;;;;7.97;6.87;;;;;;;;;;5039750;28;20201;-64
2023/04/19 08:29:01;;;;;;;7.20;6.50;;;;;;;;;;5037565;28;20200;-65
2023/04/19 08:31:28;;;;;;;8.05;7.35;;;;;;;;;;5044521;28;20262;-65
2023/04/19 08:33:59;;;;;;;7.88;7.18;;;;;;;;;;5044580;28;20215;-65
2023/04/19 08:36:26;;;;;;;7.82;6.95;;;;;;;;;;5045790;28;20204;-64
2023/04/19 08:38:53;;;;;;;7.78;6.95;;;;;;;;;;5041852;28;20212;-65
2023/04/19 08:41:22;;;;;;;7.75;6.95;;;;;;;;;;5048708;28;20195;-64
2023/04/19 08:43:51;;;;;;;7.60;6.90;;;;;;;;;;5042617;28;20302;-65
2023/04/19 08:46:19;;;;;;;7.93;6.78;;;;;;;;;;5041320;28;20224;-65
2023/04/19 08:48:47;;;;;;;7.70;7.00;;;;;;;;;;5047737;28;20211;-65
2023/04/19 08:51:18;;;;;;;7.70;7.00;;;;;;;;;;5040735;28;20230;-65
2023/04/19 08:53:46;;;;;;;7.20;6.60;;;;;;;;;;5043483;28;20200;-65
2023/04/19 08:56:14;;;;;;;7.70;6.90;;;;;;;;;;5040726;28;20298;-65
2023/04/19 08:58:41;;;;;;;7.30;6.47;;;;;;;;;;5041325;28;20245;-64
2023/04/19 09:01:10;;;;;;;6.90;6.20;;;;;;;;;;5041261;28;20193;-66
2023/04/19 09:03:44;;;;;;;7.15;6.45;;;;;;;;;;5041785;28;20215;-65
2023/04/19 09:06:11;;;;;;;7.15;6.45;;;;;;;;;;5046177;28;20237;-65
2023/04/19 09:08:40;;;;;;;7.13;6.35;;;;;;;;;;5046888;28;20265;-65
2023/04/19 09:13:52;;;;;;;7.20;6.50;;;;;;;;;;5039528;28;20203;-64
2023/04/19 09:16:25;;;;;;;7.47;6.70;;;;;;;;;;5044768;28;20211;-63
2023/04/19 09:18:55;;;;;;;6.93;6.22;;;;;;;;;;5047275;28;20199;-63
2023/04/19 09:21:28;;;;;;;6.72;6.00;;;;;;;;;;5043226;28;20266;-63
2023/04/19 09:23:57;;;;;;;6.32;5.72;;;;;;;;;;5039823;28;20203;-63
2023/04/19 09:26:28;;;;;;;6.63;5.93;;;;;;;;;;5045542;28;20219;-62
2023/04/19 09:28:59;;;;;;;6.22;5.65;;;;;;;;;;5037364;28;20214;-64
2023/04/19 09:31:27;;;;;;;6.97;5.90;;;;;;;;;;5046608;28;20288;-64
2023/04/19 09:33:54;;;;;;;5.97;5.47;;;;;;;;;;5041427;28;20215;-64
2023/04/19 09:36:28;;;;;;;6.00;5.47;;;;;;;;;;5038835;28;20203;-64
2023/04/19 09:39:07;;;;;;;6.10;5.50;;;;;;;;;;5040068;28;20208;-65
2023/04/19 09:41:36;;;;;;;6.40;5.78;;;;;;;;;;5038711;28;20283;-64
2023/04/19 09:44:14;;;;;;;6.05;5.40;;;;;;;;;;5039292;28;20214;-65
2023/04/19 09:46:44;;;;;;;5.38;4.90;;;;;;;;;;5044701;28;20235;-64
2023/04/19 09:49:22;;;;;;;5.45;5.03;;;;;;;;;;5041072;28;20203;-63
2023/04/19 09:51:54;;;;;;;5.65;5.15;;;;;;;;;;5038877;28;20249;-65
2023/04/19 09:54:24;;;;;;;6.47;4.95;;;;;;;;;;5040603;28;20210;-64
2023/04/19 09:57:00;;;;;;;6.82;4.38;;;;;;;;;;5041247;28;20208;-64
2023/04/19 09:59:27;;;;;;;4.47;4.13;;;;;;;;;;5040975;28;20212;-64
2023/04/19 10:01:55;;;;;;;4.43;4.03;;;;;;;;;;5038154;28;20219;-64
2023/04/19 10:04:23;;;;;;;4.78;4.38;;;;;;;;;;5035879;28;20207;-64
2023/04/19 10:06:51;;;;;;;4.82;4.43;;;;;;;;;;5035761;28;20210;-63
2023/04/19 10:09:18;;;;;;;5.25;4.75;;;;;;;;;;5041755;28;20226;-63
2023/04/19 10:11:48;;;;;;;4.18;3.88;;;;;;;;;;5041347;28;20231;-64
2023/04/19 10:14:16;;;;;;;3.95;3.65;;;;;;;;;;5044086;28;20219;-64
2023/04/19 10:16:43;;;;;;;4.43;4.00;;;;;;;;;;5042633;28;20204;-62
2023/04/19 10:19:12;;;;;;;4.60;4.07;;;;;;;;;;5041182;28;20223;-64
2023/04/19 10:21:40;;;;;;;3.60;3.30;;;;;;;;;;5040277;28;20215;-64
2023/04/19 10:24:07;;;;;;;4.63;4.13;;;;;;;;;;5042533;28;20210;-65
2023/04/19 10:26:49;;;;;;;3.70;3.40;;;;;;;;;;5039979;28;20200;-64
2023/04/19 10:29:38;;;;;;;3.78;3.45;;;;;;;;;;5047240;28;20290;-62
2023/04/19 10:32:05;;;;;;;3.50;3.30;;;;;;;;;;5046638;28;20222;-63
2023/04/19 10:34:40;;;;;;;3.80;3.50;;;;;;;;;;5046340;28;20203;-63
2023/04/19 10:37:10;;;;;;;4.13;3.83;;;;;;;;;;5048105;28;20290;-63
2023/04/19 10:39:41;;;;;;;4.28;3.88;;;;;;;;;;5047244;28;20265;-64
2023/04/19 10:42:08;;;;;;;5.38;4.28;;;;;;;;;;5044876;28;20210;-63
2023/04/19 10:44:37;;;;;;;3.67;3.38;;;;;;;;;;5048491;28;20238;-64
2023/04/19 10:47:06;;;;;;;3.92;3.63;;;;;;;;;;5042477;28;20259;-64
2023/04/19 10:49:44;;;;;;;5.88;5.28;;;;;;;;;;5039583;28;20322;-62
2023/04/19 10:52:26;;;;;;;4.07;3.78;;;;;;;;;;5045661;28;20245;-63
2023/04/19 10:54:56;;;;;;;4.03;3.72;;;;;;;;;;5043489;28;20254;-63
2023/04/19 10:57:24;;;;;;;4.20;3.85;;;;;;;;;;5043131;28;20203;-64
2023/04/19 11:00:18;;;;;;;3.88;3.58;;;;;;;;;;5049124;28;20202;-63
2023/04/19 11:02:46;;;;;;;3.90;3.60;;;;;;;;;;5044681;28;20210;-62
2023/04/19 11:05:13;;;;;;;3.83;3.53;;;;;;;;;;5046623;28;20212;-65
2023/04/19 11:07:48;;;;;;;3.47;3.17;;;;;;;;;;5045925;28;20207;-62
2023/04/19 11:10:30;;;;;;;3.63;3.33;;;;;;;;;;5045365;28;20214;-64
2023/04/19 11:12:58;;;;;;;3.50;3.28;;;;;;;;;;5043735;28;20222;-64
2023/04/19 11:15:29;;;;;;;4.60;4.15;;;;;;;;;;5041814;28;20203;-62
2023/04/19 11:17:57;;;;;;;5.80;5.30;;;;;;;;;;5042981;28;20298;-63
2023/04/19 11:20:26;;;;;;;4.40;4.00;;;;;;;;;;5040553;28;20210;-63
2023/04/19 11:22:59;;;;;;;3.60;3.28;;;;;;;;;;5043860;28;20211;-62
2023/04/19 11:25:30;;;;;;;3.15;2.85;;;;;;;;;;5044830;28;20232;-62
2023/04/19 11:27:58;;;;;;;4.40;4.00;;;;;;;;;;5044752;28;20203;-62
2023/04/19 11:30:33;;;;;;;4.00;3.70;;;;;;;;;;5041873;28;20206;-63
2023/04/19 11:33:00;;;;;;;4.00;3.70;;;;;;;;;;5040808;28;20222;-63
2023/04/19 11:35:30;;;;;;;4.65;4.28;;;;;;;;;;5043539;28;20200;-63
2023/04/19 11:38:00;;;;;;;4.45;4.10;;;;;;;;;;5043666;28;20241;-64
2023/04/19 11:40:27;;;;;;;4.65;4.25;;;;;;;;;;5041847;28;20243;-64
2023/04/19 11:42:55;;;;;;;4.50;4.15;;;;;;;;;;5042469;28;20206;-63
2023/04/19 11:45:27;;;;;;;4.38;3.97;;;;;;;;;;5040087;28;20260;-63
2023/04/19 11:47:57;;;;;;;4.65;4.25;;;;;;;;;;5043526;28;20211;-69
2023/04/19 11:50:31;;;;;;;4.82;4.43;;;;;;;;;;5042210;28;20208;-64
2023/04/19 11:52:58;;;;;;;5.05;4.40;;;;;;;;;;5042593;28;20231;-64
2023/04/19 11:55:25;;;;;;;4.40;4.07;;;;;;;;;;5043610;28;20215;-64
2023/04/19 11:57:52;;;;;;;6.38;4.57;;;;;;;;;;5040154;28;20213;-64
2023/04/19 12:00:28;;;;;;;5.18;4.68;;;;;;;;;;5046103;28;20207;-63
2023/04/19 12:02:56;;;;;;;4.97;4.50;;;;;;;;;;5046886;28;20203;-64
2023/04/19 12:05:24;;;;;;;5.03;4.53;;;;;;;;;;5042789;28;20211;-64
2023/04/19 12:08:01;;;;;;;5.35;4.85;;;;;;;;;;5039322;28;20231;-63
2023/04/19 12:10:28;;;;;;;4.85;4.28;;;;;;;;;;5046670;28;20207;-64
2023/04/19 12:12:55;;;;;;;5.05;4.55;;;;;;;;;;5043388;28;20238;-64
2023/04/19 12:15:23;;;;;;;4.63;4.22;;;;;;;;;;5043231;28;20200;-64
2023/04/19 12:17:58;;;;;;;4.28;3.88;;;;;;;;;;5042689;28;20202;-64
2023/04/19 12:20:32;;;;;;;5.05;4.50;;;;;;;;;;5044158;28;20195;-64
2023/04/19 12:22:59;;;;;;;4.70;4.30;;;;;;;;;;5044010;28;20203;-63
2023/04/19 12:25:30;;;;;;;5.53;3.95;;;;;;;;;;5043842;28;20204;-63
2023/04/19 12:27:57;;;;;;;4.75;4.35;;;;;;;;;;5038497;28;20215;-62
2023/04/19 12:30:25;;;;;;;4.68;4.28;;;;;;;;;;5039315;28;20203;-62
2023/04/19 12:32:54;;;;;;;4.45;4.05;;;;;;;;;;5036503;28;20281;-61
2023/04/19 12:35:22;;;;;;;4.32;4.03;;;;;;;;;;5044717;28;20214;-64
2023/04/19 12:37:49;;;;;;;4.57;4.18;;;;;;;;;;5044426;28;20207;-62
2023/04/19 12:40:17;;;;;;;5.88;4.13;;;;;;;;;;5043092;28;20208;-63
2023/04/19 12:42:44;;;;;;;5.22;4.72;;;;;;;;;;5043046;28;20210;-64
2023/04/19 12:45:11;;;;;;;4.93;4.25;;;;;;;;;;5043143;28;20246;-64
2023/04/19 12:47:39;;;;;;;4.28;3.90;;;;;;;;;;5043772;28;20251;-64
2023/04/19 12:50:06;;;;;;;4.28;3.92;;;;;;;;;;5039626;28;20204;-64
2023/04/19 12:52:35;;;;;;;4.30;3.97;;;;;;;;;;5038653;28;20224;-65
2023/04/19 12:55:03;;;;;;;4.90;4.10;;;;;;;;;;5040765;28;20199;-64
2023/04/19 12:57:30;;;;;;;7.63;4.35;;;;;;;;;;5039506;28;20211;-64
2023/04/19 12:59:57;;;;;;;4.55;4.20;;;;;;;;;;5036663;28;20204;-64
2023/04/19 13:02:24;;;;;;;6.68;4.45;;;;;;;;;;5040638;28;20207;-64
2023/04/19 13:04:51;;;;;;;4.78;4.30;;;;;;;;;;5039851;28;20219;-65
2023/04/19 13:07:18;;;;;;;4.65;4.22;;;;;;;;;;5042856;28;20208;-65
2023/04/19 13:09:46;;;;;;;5.55;4.13;;;;;;;;;;5041242;28;20203;-65
2023/04/19 13:12:14;;;;;;;4.30;3.90;;;;;;;;;;5039280;28;20211;-64
2023/04/19 13:14:41;;;;;;;5.35;4.38;;;;;;;;;;5044358;28;20265;-64
2023/04/19 13:17:08;;;;;;;5.60;4.28;;;;;;;;;;5045316;28;20203;-65
2023/04/19 13:19:35;;;;;;;4.53;4.13;;;;;;;;;;5042960;28;20208;-64
2023/04/19 13:22:02;;;;;;;4.40;4.00;;;;;;;;;;5040107;28;20218;-63
2023/04/19 13:24:29;;;;;;;4.35;3.95;;;;;;;;;;5037730;28;20200;-62
2023/04/19 13:26:57;;;;;;;4.20;3.90;;;;;;;;;;5037060;28;20208;-61
2023/04/19 13:29:25;;;;;;;3.92;3.60;;;;;;;;;;5035652;28;20208;-63
2023/04/19 13:31:52;;;;;;;4.35;3.65;;;;;;;;;;5032228;28;20214;-62
2023/04/19 13:34:19;;;;;;;4.20;3.80;;;;;;;;;;5041531;28;20290;-62
2023/04/19 13:36:47;;;;;;;4.72;3.90;;;;;;;;;;5037485;28;20238;-62
2023/04/19 13:39:14;;;;;;;3.85;3.53;;;;;;;;;;5040523;28;20226;-62
2023/04/19 13:41:42;;;;;;;4.03;3.55;;;;;;;;;;5050451;22;20218;-87
2023/04/19 13:44:10;;;;;;;4.03;3.50;;;;;;;;;;5064349;28;20244;-88
2023/04/19 13:46:38;;;;;;;4.75;3.67;;;;;;;;;;5041948;28;20207;-87
2023/04/19 13:49:05;;;;;;;3.40;3.10;;;;;;;;;;5038186;28;20204;-88
2023/04/19 13:51:32;;;;;;;3.20;2.90;;;;;;;;;;5039806;28;20211;-87
2023/04/19 13:53:59;;;;;;;3.40;3.10;;;;;;;;;;5034965;28;20218;-87
2023/04/19 13:56:27;;;;;;;3.20;2.90;;;;;;;;;;5026383;28;20209;-87
2023/04/19 13:58:54;;;;;;;3.35;3.13;;;;;;;;;;5047827;28;20308;-87
2023/04/19 14:01:23;;;;;;;4.15;3.08;;;;;;;;;;5044497;28;20282;-87
2023/04/19 14:03:50;;;;;;;3.17;2.80;;;;;;;;;;5045727;28;20207;-88
2023/04/19 14:06:17;;;;;;;2.83;2.60;;;;;;;;;;5037675;28;20212;-87
2023/04/19 14:08:44;;;;;;;2.90;2.70;;;;;;;;;;5037025;28;20208;-87
2023/04/19 14:11:12;;;;;;;2.92;2.40;;;;;;;;;;5032949;28;20271;-87
2023/04/19 14:13:39;;;;;;;3.38;2.53;;;;;;;;;;5047327;28;20227;-87
2023/04/19 14:16:07;;;;;;;4.40;2.40;;;;;;;;;;5040998;28;20208;-87
2023/04/19 14:18:36;;;;;;;2.33;2.10;;;;;;;;;;5024157;28;20199;-87
2023/04/19 14:21:03;;;;;;;2.50;2.30;;;;;;;;;;5046251;28;20234;-87
2023/04/19 14:23:30;;;;;;;2.72;2.45;;;;;;;;;;5057985;28;20265;-87
2023/04/19 14:25:57;;;;;;;2.85;2.20;;;;;;;;;;5044810;28;20275;-87
2023/04/19 14:28:24;;;;;;;2.72;2.28;;;;;;;;;;5042098;28;20213;-88
2023/04/19 14:30:52;;;;;;;2.60;2.40;;;;;;;;;;5033540;28;20204;-87
2023/04/19 14:33:19;;;;;;;2.47;2.30;;;;;;;;;;5040074;28;20211;-87
2023/04/19 14:35:48;;;;;;;5.78;2.60;;;;;;;;;;5035871;28;20203;-87
2023/04/19 14:38:15;;;;;;;3.42;2.20;;;;;;;;;;5052376;28;20286;-87
2023/04/19 14:40:42;;;;;;;2.33;2.13;;;;;;;;;;5023300;28;20211;-87
2023/04/19 14:43:12;;;;;;;4.60;3.90;;;;;;;;;;5039279;28;20231;-88
2023/04/19 14:45:39;;;;;;;2.80;2.58;;;;;;;;;;5033142;28;20208;-88
2023/04/19 14:48:06;;;;;;;2.30;2.10;;;;;;;;;;5044791;28;20299;-87
2023/04/19 14:50:34;;;;;;;4.97;2.20;;;;;;;;;;5043376;28;20203;-87
2023/04/19 14:53:02;;;;;;;2.17;1.90;;;;;;;;;;5058396;28;20219;-87